Time;durP1;ratioP1;P1;durP2;ratioP2;P2;SDS_P1;SDS_P2;PMS_P1;PMS_P2;Temp;Humidity;BMP_temperature;BMP_pressure;BME280_temperature;BME280_humidity;BME280_pressure;Samples;Min_cycle;Max_cycle;Signal;HPM_P1;HPM_P2
2023/07/09 00:01:17;;;;;;;9.37;3.80;;;;;;;;;;4987275;28;20034;-35
2023/07/09 00:03:42;;;;;;;6.90;4.18;;;;;;;;;;4973754;28;20335;-36
2023/07/09 00:06:07;;;;;;;6.75;3.78;;;;;;;;;;4983896;28;20034;-36
2023/07/09 00:08:33;;;;;;;10.65;5.03;;;;;;;;;;4984089;28;20022;-36
2023/07/09 00:10:58;;;;;;;6.75;4.13;;;;;;;;;;4983118;28;20037;-36
2023/07/09 00:13:25;;;;;;;5.03;3.43;;;;;;;;;;4982756;28;20033;-36
2023/07/09 00:15:50;;;;;;;4.50;2.80;;;;;;;;;;4983977;28;20278;-36
2023/07/09 00:18:16;;;;;;;12.73;3.83;;;;;;;;;;4980706;28;20030;-36
2023/07/09 00:20:43;;;;;;;9.80;3.97;;;;;;;;;;4971835;28;20018;-36
2023/07/09 00:23:09;;;;;;;5.78;3.20;;;;;;;;;;4980768;28;20034;-36
2023/07/09 00:25:35;;;;;;;7.30;3.50;;;;;;;;;;4977750;28;20030;-36
2023/07/09 00:28:01;;;;;;;7.22;3.50;;;;;;;;;;4980316;28;20093;-36
2023/07/09 00:30:27;;;;;;;9.05;3.78;;;;;;;;;;4974863;28;20374;-36
2023/07/09 00:32:54;;;;;;;10.68;3.70;;;;;;;;;;4985174;28;20456;-35
2023/07/09 00:35:19;;;;;;;8.98;3.95;;;;;;;;;;4983046;28;20029;-36
2023/07/09 00:37:45;;;;;;;7.68;3.65;;;;;;;;;;4987306;28;20022;-35
2023/07/09 00:40:14;;;;;;;8.55;4.57;;;;;;;;;;4980390;28;20014;-36
2023/07/09 00:42:42;;;;;;;9.18;4.20;;;;;;;;;;4989704;28;20030;-36
2023/07/09 00:45:17;;;;;;;6.88;3.83;;;;;;;;;;4990571;28;20034;-36
2023/07/09 00:47:46;;;;;;;6.82;3.75;;;;;;;;;;4978166;28;20029;-35
2023/07/09 00:50:32;;;;;;;9.10;4.25;;;;;;;;;;4986447;28;20079;-36
2023/07/09 00:53:02;;;;;;;6.70;4.00;;;;;;;;;;4986035;28;20248;-37
2023/07/09 00:55:30;;;;;;;10.38;3.97;;;;;;;;;;4991796;28;20417;-36
2023/07/09 00:58:00;;;;;;;7.38;3.97;;;;;;;;;;4987682;28;20026;-35
2023/07/09 01:00:29;;;;;;;9.85;3.60;;;;;;;;;;4990882;28;20480;-36
2023/07/09 01:02:55;;;;;;;6.95;3.90;;;;;;;;;;4981834;28;20133;-36
2023/07/09 01:05:21;;;;;;;6.15;3.90;;;;;;;;;;4984770;28;20015;-37
2023/07/09 01:07:48;;;;;;;7.50;2.60;;;;;;;;;;4990289;28;20037;-37
2023/07/09 01:10:14;;;;;;;7.13;4.18;;;;;;;;;;4990747;28;20039;-36
2023/07/09 01:12:40;;;;;;;10.23;4.03;;;;;;;;;;4991581;28;20370;-36
2023/07/09 01:15:07;;;;;;;10.23;4.55;;;;;;;;;;4988415;28;20483;-38
2023/07/09 01:17:33;;;;;;;9.32;4.13;;;;;;;;;;4989608;28;20045;-37
2023/07/09 01:19:58;;;;;;;7.35;3.83;;;;;;;;;;4983160;28;20413;-36
2023/07/09 01:22:24;;;;;;;8.07;3.90;;;;;;;;;;4977309;28;20038;-37
2023/07/09 01:25:06;;;;;;;6.05;3.55;;;;;;;;;;4990065;28;20296;-37
2023/07/09 01:27:34;;;;;;;9.77;3.83;;;;;;;;;;4986656;28;20019;-36
2023/07/09 01:30:03;;;;;;;9.00;3.75;;;;;;;;;;4979323;28;20374;-37
2023/07/09 01:32:28;;;;;;;7.32;3.75;;;;;;;;;;4970438;28;20022;-35
2023/07/09 01:34:55;;;;;;;7.03;3.80;;;;;;;;;;4983799;28;20516;-36
2023/07/09 01:37:22;;;;;;;7.25;3.85;;;;;;;;;;4975291;28;20109;-37
2023/07/09 01:39:49;;;;;;;8.57;4.10;;;;;;;;;;4982528;28;20030;-36
2023/07/09 01:42:14;;;;;;;6.88;4.03;;;;;;;;;;4985401;28;20026;-37
2023/07/09 01:44:40;;;;;;;7.45;3.72;;;;;;;;;;4985150;28;20535;-37
2023/07/09 01:47:05;;;;;;;6.18;3.30;;;;;;;;;;4980947;28;20042;-37
2023/07/09 01:49:32;;;;;;;9.27;3.90;;;;;;;;;;4982305;28;20832;-36
2023/07/09 01:52:01;;;;;;;7.35;3.78;;;;;;;;;;4978689;28;20023;-37
2023/07/09 01:54:30;;;;;;;6.57;3.80;;;;;;;;;;4977234;28;20114;-37
2023/07/09 01:57:12;;;;;;;8.40;3.78;;;;;;;;;;4987265;28;20031;-37
2023/07/09 01:59:41;;;;;;;9.30;4.07;;;;;;;;;;4988337;28;20026;-37
2023/07/09 02:02:06;;;;;;;6.20;3.72;;;;;;;;;;4978812;28;20030;-37
2023/07/09 02:04:31;;;;;;;6.55;3.92;;;;;;;;;;4983156;28;20033;-37
2023/07/09 02:06:57;;;;;;;7.60;3.40;;;;;;;;;;4984945;28;20034;-37
2023/07/09 02:09:22;;;;;;;8.00;4.22;;;;;;;;;;4983334;28;20648;-37
2023/07/09 02:11:47;;;;;;;7.13;3.47;;;;;;;;;;4986463;28;20035;-37
2023/07/09 02:14:12;;;;;;;10.43;4.40;;;;;;;;;;4986758;28;20269;-36
2023/07/09 02:16:38;;;;;;;9.52;4.10;;;;;;;;;;4987685;28;20041;-37
2023/07/09 02:19:03;;;;;;;7.10;3.87;;;;;;;;;;4978452;28;20062;-37
2023/07/09 02:21:29;;;;;;;8.57;3.73;;;;;;;;;;4985388;28;20565;-37
2023/07/09 02:23:55;;;;;;;9.20;4.30;;;;;;;;;;4987553;28;20357;-36
2023/07/09 02:26:20;;;;;;;10.23;3.67;;;;;;;;;;4985401;28;20113;-37
2023/07/09 02:28:46;;;;;;;12.00;4.05;;;;;;;;;;4981772;28;20022;-37
2023/07/09 02:31:11;;;;;;;6.53;3.20;;;;;;;;;;4975337;28;20035;-36
2023/07/09 02:33:36;;;;;;;7.20;3.93;;;;;;;;;;4977090;28;20026;-37
2023/07/09 02:36:02;;;;;;;7.43;3.80;;;;;;;;;;4986138;28;20022;-37
2023/07/09 02:38:27;;;;;;;6.47;3.45;;;;;;;;;;4987168;28;20030;-37
2023/07/09 02:40:53;;;;;;;8.07;4.20;;;;;;;;;;4982326;28;20034;-37
2023/07/09 02:43:18;;;;;;;8.55;4.20;;;;;;;;;;4985001;28;20401;-37
2023/07/09 02:45:44;;;;;;;10.35;3.88;;;;;;;;;;4976552;28;20069;-37
2023/07/09 02:48:09;;;;;;;7.03;3.72;;;;;;;;;;4984088;28;20030;-37
2023/07/09 02:50:34;;;;;;;8.87;3.57;;;;;;;;;;4986058;28;20046;-37
2023/07/09 02:53:00;;;;;;;6.30;3.63;;;;;;;;;;4986601;28;20328;-36
2023/07/09 02:55:25;;;;;;;7.70;4.07;;;;;;;;;;4978349;28;20029;-38
2023/07/09 02:57:50;;;;;;;7.27;3.13;;;;;;;;;;4979053;28;20495;-36
2023/07/09 03:00:16;;;;;;;8.03;4.30;;;;;;;;;;4980885;28;20335;-37
2023/07/09 03:02:41;;;;;;;8.38;4.00;;;;;;;;;;4983560;28;20763;-37
2023/07/09 03:05:07;;;;;;;4.20;2.00;;;;;;;;;;4979707;28;20034;-36
2023/07/09 03:07:32;;;;;;;7.82;3.45;;;;;;;;;;4983125;28;20701;-36
2023/07/09 03:09:57;;;;;;;7.93;4.03;;;;;;;;;;4982182;28;20054;-36
2023/07/09 03:12:22;;;;;;;7.60;4.00;;;;;;;;;;4985507;28;20038;-36
2023/07/09 03:14:49;;;;;;;9.53;3.67;;;;;;;;;;4980695;28;20500;-36
2023/07/09 03:17:14;;;;;;;7.93;3.58;;;;;;;;;;4981708;28;20364;-37
2023/07/09 03:19:39;;;;;;;6.63;4.20;;;;;;;;;;4983620;28;20499;-37
2023/07/09 03:22:04;;;;;;;11.50;4.13;;;;;;;;;;4972057;28;20027;-37
2023/07/09 03:24:30;;;;;;;7.90;4.10;;;;;;;;;;4983528;28;20037;-37
2023/07/09 03:26:55;;;;;;;9.20;3.80;;;;;;;;;;4982580;28;20065;-38
2023/07/09 03:29:20;;;;;;;9.83;4.60;;;;;;;;;;4977832;28;20031;-37
2023/07/09 03:31:45;;;;;;;8.30;3.90;;;;;;;;;;4982082;28;20385;-37
2023/07/09 03:34:11;;;;;;;9.60;4.13;;;;;;;;;;4981539;28;20274;-36
2023/07/09 03:36:37;;;;;;;7.70;3.92;;;;;;;;;;4977543;28;20856;-36
2023/07/09 03:39:02;;;;;;;6.25;3.30;;;;;;;;;;4977645;28;20030;-36
2023/07/09 03:41:28;;;;;;;9.88;4.25;;;;;;;;;;4987948;28;20030;-36
2023/07/09 03:43:53;;;;;;;7.90;3.37;;;;;;;;;;4987775;28;20033;-37
2023/07/09 03:46:18;;;;;;;4.53;2.33;;;;;;;;;;4987712;28;20030;-37
2023/07/09 03:48:43;;;;;;;8.70;4.47;;;;;;;;;;4983956;28;20276;-36
2023/07/09 03:51:09;;;;;;;8.43;3.90;;;;;;;;;;4982882;28;20030;-35
2023/07/09 03:53:34;;;;;;;6.90;4.23;;;;;;;;;;4988793;28;20274;-37
2023/07/09 03:56:00;;;;;;;7.13;4.27;;;;;;;;;;4978672;28;20286;-35
2023/07/09 03:58:25;;;;;;;5.75;2.97;;;;;;;;;;4987451;28;20106;-35
2023/07/09 04:00:51;;;;;;;7.90;4.07;;;;;;;;;;4986863;28;20037;-35
2023/07/09 04:03:16;;;;;;;10.38;4.57;;;;;;;;;;4986650;28;20584;-36
2023/07/09 04:05:41;;;;;;;6.10;3.80;;;;;;;;;;4985838;28;20579;-36
2023/07/09 04:08:06;;;;;;;9.90;3.90;;;;;;;;;;4989405;28;20296;-36
2023/07/09 04:10:32;;;;;;;6.93;3.95;;;;;;;;;;4980036;28;20019;-36
2023/07/09 04:12:57;;;;;;;14.23;6.55;;;;;;;;;;4980100;28;20022;-36
2023/07/09 04:15:23;;;;;;;12.32;5.00;;;;;;;;;;4983524;28;20029;-36
2023/07/09 04:17:48;;;;;;;7.10;4.25;;;;;;;;;;4986788;28;20023;-36
2023/07/09 04:20:13;;;;;;;7.67;4.10;;;;;;;;;;4981473;28;20127;-35
2023/07/09 04:22:39;;;;;;;8.80;4.07;;;;;;;;;;4979262;28;20270;-36
2023/07/09 04:25:05;;;;;;;8.77;4.18;;;;;;;;;;4988529;28;20076;-35
2023/07/09 04:27:31;;;;;;;7.25;4.32;;;;;;;;;;4989281;28;20026;-36
2023/07/09 04:29:56;;;;;;;8.32;3.90;;;;;;;;;;4979984;28;20035;-35
2023/07/09 04:32:21;;;;;;;10.98;5.43;;;;;;;;;;4981997;28;20429;-36
2023/07/09 04:34:47;;;;;;;8.02;4.72;;;;;;;;;;4978264;28;20673;-36
2023/07/09 04:37:13;;;;;;;10.77;4.28;;;;;;;;;;4984562;28;20393;-35
2023/07/09 04:39:38;;;;;;;9.95;4.10;;;;;;;;;;4987959;28;20480;-36
2023/07/09 04:42:05;;;;;;;10.75;4.43;;;;;;;;;;4988755;28;20038;-34
2023/07/09 04:44:30;;;;;;;12.32;5.18;;;;;;;;;;4987746;28;20504;-36
2023/07/09 04:46:55;;;;;;;9.73;4.20;;;;;;;;;;4984243;28;20042;-36
2023/07/09 04:49:21;;;;;;;8.50;4.57;;;;;;;;;;4967934;28;20444;-35
2023/07/09 04:51:46;;;;;;;9.53;5.30;;;;;;;;;;4977216;28;20038;-37
2023/07/09 04:54:14;;;;;;;8.50;4.20;;;;;;;;;;4985017;28;20270;-36
2023/07/09 04:56:40;;;;;;;14.55;5.30;;;;;;;;;;4985790;28;20023;-36
2023/07/09 04:59:05;;;;;;;5.07;2.67;;;;;;;;;;4977853;28;20500;-35
2023/07/09 05:01:30;;;;;;;13.30;4.40;;;;;;;;;;4977601;28;20026;-36
2023/07/09 05:03:56;;;;;;;9.88;5.60;;;;;;;;;;4986128;28;20389;-35
2023/07/09 05:06:21;;;;;;;10.43;4.57;;;;;;;;;;4984781;28;20030;-36
2023/07/09 05:08:48;;;;;;;10.38;5.28;;;;;;;;;;4981087;28;20026;-35
2023/07/09 05:11:13;;;;;;;8.57;4.90;;;;;;;;;;4982837;28;20093;-36
2023/07/09 05:13:38;;;;;;;11.30;5.85;;;;;;;;;;4988466;28;20022;-36
2023/07/09 05:16:04;;;;;;;9.93;5.60;;;;;;;;;;4986570;28;20045;-35
2023/07/09 05:18:29;;;;;;;13.20;4.30;;;;;;;;;;4981377;28;20383;-36
2023/07/09 05:20:55;;;;;;;9.27;4.50;;;;;;;;;;4979847;28;20039;-36
2023/07/09 05:23:20;;;;;;;10.23;4.07;;;;;;;;;;4971475;28;20917;-36
2023/07/09 05:25:46;;;;;;;9.82;4.35;;;;;;;;;;4987408;28;20018;-36
2023/07/09 05:28:11;;;;;;;9.23;5.05;;;;;;;;;;4977890;28;20037;-36
2023/07/09 05:30:36;;;;;;;9.10;4.30;;;;;;;;;;4976846;28;20129;-35
2023/07/09 05:33:02;;;;;;;5.97;2.90;;;;;;;;;;4983980;28;20281;-36
2023/07/09 05:35:27;;;;;;;9.73;3.90;;;;;;;;;;4971788;28;20030;-36
2023/07/09 05:37:53;;;;;;;8.05;3.88;;;;;;;;;;4981691;28;21359;-36
2023/07/09 05:40:18;;;;;;;9.63;4.13;;;;;;;;;;4951827;28;20041;-37
2023/07/09 05:42:44;;;;;;;10.63;4.63;;;;;;;;;;4973901;28;20400;-36
2023/07/09 05:45:09;;;;;;;9.45;4.78;;;;;;;;;;4977403;28;20018;-35
2023/07/09 05:47:36;;;;;;;11.07;3.60;;;;;;;;;;4979411;28;20500;-36
2023/07/09 05:50:02;;;;;;;6.57;4.32;;;;;;;;;;4971000;28;20677;-36
2023/07/09 05:52:29;;;;;;;10.15;4.53;;;;;;;;;;4971766;28;20384;-35
2023/07/09 05:54:54;;;;;;;6.30;3.95;;;;;;;;;;4962849;28;20030;-35
2023/07/09 05:57:20;;;;;;;10.52;4.50;;;;;;;;;;4985364;28;20034;-36
2023/07/09 05:59:45;;;;;;;13.63;4.70;;;;;;;;;;4981868;28;20040;-36
2023/07/09 06:02:11;;;;;;;8.47;5.07;;;;;;;;;;4980016;28;20047;-36
2023/07/09 06:04:36;;;;;;;9.85;4.32;;;;;;;;;;4973812;28;20112;-37
2023/07/09 06:07:03;;;;;;;6.93;4.53;;;;;;;;;;4979846;28;20040;-36
2023/07/09 06:09:28;;;;;;;8.00;4.43;;;;;;;;;;4976645;28;20399;-37
2023/07/09 06:11:54;;;;;;;8.37;4.27;;;;;;;;;;4972747;28;20459;-37
2023/07/09 06:14:19;;;;;;;9.80;4.00;;;;;;;;;;4981387;28;20276;-37
2023/07/09 06:16:44;;;;;;;8.82;4.85;;;;;;;;;;4986594;28;20658;-37
2023/07/09 06:19:10;;;;;;;12.27;3.90;;;;;;;;;;4953927;28;22049;-35
2023/07/09 06:21:35;;;;;;;9.67;3.97;;;;;;;;;;4977088;28;20285;-35
2023/07/09 06:24:00;;;;;;;13.40;5.57;;;;;;;;;;4960263;28;20278;-35
2023/07/09 06:26:26;;;;;;;14.13;5.30;;;;;;;;;;4975717;28;20492;-37
2023/07/09 06:28:51;;;;;;;14.90;5.83;;;;;;;;;;4985534;28;20273;-36
2023/07/09 06:31:16;;;;;;;15.37;5.23;;;;;;;;;;4970295;28;20033;-37
2023/07/09 06:33:41;;;;;;;13.00;5.15;;;;;;;;;;4985528;28;20374;-36
2023/07/09 06:36:08;;;;;;;14.13;5.00;;;;;;;;;;4987596;28;20477;-35
2023/07/09 06:38:33;;;;;;;16.52;5.30;;;;;;;;;;4987106;28;20042;-35
2023/07/09 06:40:59;;;;;;;9.07;3.53;;;;;;;;;;4979510;28;20076;-36
2023/07/09 06:43:24;;;;;;;6.57;3.67;;;;;;;;;;4981794;28;20277;-36
2023/07/09 06:45:54;;;;;;;10.77;3.30;;;;;;;;;;4976774;28;20117;-37
2023/07/09 06:48:20;;;;;;;7.50;3.88;;;;;;;;;;4982188;28;20485;-36
2023/07/09 06:50:45;;;;;;;12.68;4.45;;;;;;;;;;4986234;28;20073;-37
2023/07/09 06:53:10;;;;;;;6.55;4.13;;;;;;;;;;4986486;28;20037;-36
2023/07/09 06:55:39;;;;;;;8.13;3.50;;;;;;;;;;4980307;28;20049;-37
2023/07/09 06:58:04;;;;;;;8.68;3.97;;;;;;;;;;4969517;28;20070;-35
2023/07/09 07:00:29;;;;;;;4.88;3.15;;;;;;;;;;4975206;28;20030;-36
2023/07/09 07:02:55;;;;;;;9.63;3.90;;;;;;;;;;4986374;28;20023;-35
2023/07/09 07:05:20;;;;;;;11.00;4.95;;;;;;;;;;4979382;28;20022;-36
2023/07/09 07:07:45;;;;;;;6.80;3.85;;;;;;;;;;4967504;28;20104;-36
2023/07/09 07:10:11;;;;;;;10.35;4.10;;;;;;;;;;4981334;28;20031;-37
2023/07/09 07:12:47;;;;;;;7.63;4.60;;;;;;;;;;4976422;28;20033;-35
2023/07/09 07:15:13;;;;;;;9.30;3.72;;;;;;;;;;4983116;28;20026;-35
2023/07/09 07:17:38;;;;;;;19.83;10.05;;;;;;;;;;4983299;28;20030;-37
2023/07/09 07:20:04;;;;;;;12.93;6.80;;;;;;;;;;4983455;28;20370;-35
2023/07/09 07:22:29;;;;;;;8.90;4.32;;;;;;;;;;4983478;28;20117;-35
2023/07/09 07:24:54;;;;;;;14.83;5.27;;;;;;;;;;4982038;28;20386;-35
2023/07/09 07:27:20;;;;;;;6.03;3.93;;;;;;;;;;4964495;28;20019;-36
2023/07/09 07:29:45;;;;;;;9.23;3.97;;;;;;;;;;4974076;28;20926;-37
2023/07/09 07:32:10;;;;;;;7.05;3.80;;;;;;;;;;4977516;28;20036;-37
2023/07/09 07:34:36;;;;;;;6.80;3.63;;;;;;;;;;4971036;28;20030;-35
2023/07/09 07:37:01;;;;;;;6.17;3.27;;;;;;;;;;4966936;28;20038;-36
2023/07/09 07:39:26;;;;;;;4.75;2.88;;;;;;;;;;4969138;28;20026;-35
2023/07/09 07:41:52;;;;;;;5.47;3.20;;;;;;;;;;4997887;22;20053;-38
2023/07/09 07:44:17;;;;;;;5.50;3.58;;;;;;;;;;4955722;28;20033;-39
2023/07/09 07:46:43;;;;;;;7.80;3.42;;;;;;;;;;4964234;28;20021;-39
2023/07/09 07:49:08;;;;;;;4.72;3.03;;;;;;;;;;4972600;28;20108;-39
2023/07/09 07:51:34;;;;;;;5.88;3.70;;;;;;;;;;4959366;28;20396;-41
2023/07/09 07:53:59;;;;;;;5.07;3.50;;;;;;;;;;4984414;28;20046;-39
2023/07/09 07:56:27;;;;;;;5.97;2.78;;;;;;;;;;4976941;28;20022;-39
2023/07/09 07:58:52;;;;;;;6.30;3.15;;;;;;;;;;4984137;28;20077;-40
2023/07/09 08:01:18;;;;;;;6.63;3.20;;;;;;;;;;4976639;28;20023;-39
2023/07/09 08:03:43;;;;;;;4.72;2.83;;;;;;;;;;4950809;28;20026;-39
2023/07/09 08:06:08;;;;;;;4.78;2.70;;;;;;;;;;4964985;28;20041;-40
2023/07/09 08:08:34;;;;;;;3.78;2.00;;;;;;;;;;4983980;28;20046;-38
2023/07/09 08:11:07;;;;;;;5.03;3.03;;;;;;;;;;4939716;28;20031;-41
2023/07/09 08:13:33;;;;;;;5.00;2.40;;;;;;;;;;4979230;28;20277;-39
2023/07/09 08:15:58;;;;;;;5.68;2.55;;;;;;;;;;4957293;28;20066;-39
2023/07/09 08:18:24;;;;;;;6.03;2.30;;;;;;;;;;4961149;28;20470;-39
2023/07/09 08:20:49;;;;;;;8.47;3.03;;;;;;;;;;4929024;28;32720;-39
2023/07/09 08:23:14;;;;;;;8.30;2.60;;;;;;;;;;4954851;28;20285;-39
2023/07/09 08:25:39;;;;;;;4.87;2.40;;;;;;;;;;4951993;28;20320;-39
2023/07/09 08:28:05;;;;;;;6.22;2.90;;;;;;;;;;4938618;28;20281;-38
2023/07/09 08:30:30;;;;;;;9.52;3.50;;;;;;;;;;4951023;28;20033;-39
2023/07/09 08:32:57;;;;;;;11.45;4.38;;;;;;;;;;4982348;28;20463;-39
2023/07/09 08:35:22;;;;;;;5.47;2.65;;;;;;;;;;4967312;28;20038;-39
2023/07/09 08:37:47;;;;;;;6.65;2.97;;;;;;;;;;4964176;28;20015;-40
2023/07/09 08:40:14;;;;;;;9.35;3.08;;;;;;;;;;4939210;28;20039;-40
2023/07/09 08:42:45;;;;;;;7.88;2.65;;;;;;;;;;4937773;28;20038;-39
2023/07/09 08:45:29;;;;;;;5.55;2.70;;;;;;;;;;4965785;28;20027;-40
2023/07/09 08:47:55;;;;;;;7.18;2.22;;;;;;;;;;4983907;28;20400;-39
2023/07/09 08:50:41;;;;;;;8.23;3.10;;;;;;;;;;4980239;28;20473;-40
2023/07/09 08:53:13;;;;;;;7.72;3.88;;;;;;;;;;4979027;28;20023;-39
2023/07/09 08:55:40;;;;;;;6.65;3.85;;;;;;;;;;4966910;28;20026;-39
2023/07/09 08:58:15;;;;;;;7.40;3.90;;;;;;;;;;4968692;28;20042;-39
2023/07/09 09:00:43;;;;;;;10.55;3.05;;;;;;;;;;4958815;28;20397;-39
2023/07/09 09:03:20;;;;;;;4.43;2.47;;;;;;;;;;4984994;28;20026;-39
2023/07/09 09:05:46;;;;;;;5.03;2.42;;;;;;;;;;4967562;28;20026;-39
2023/07/09 09:08:19;;;;;;;5.43;2.90;;;;;;;;;;4982604;28;20697;-39
2023/07/09 09:10:51;;;;;;;5.70;2.50;;;;;;;;;;4968436;28;20053;-38
2023/07/09 09:13:23;;;;;;;5.90;2.70;;;;;;;;;;4950697;28;20034;-39
2023/07/09 09:15:49;;;;;;;5.72;2.67;;;;;;;;;;4974982;28;20093;-39
2023/07/09 09:18:17;;;;;;;5.93;2.10;;;;;;;;;;4963519;28;20026;-40
2023/07/09 09:20:43;;;;;;;6.70;2.40;;;;;;;;;;4978018;28;20186;-39
2023/07/09 09:23:09;;;;;;;6.95;2.95;;;;;;;;;;4970305;28;20036;-38
2023/07/09 09:25:37;;;;;;;5.77;2.20;;;;;;;;;;4968064;28;20034;-40
2023/07/09 09:28:03;;;;;;;5.28;2.50;;;;;;;;;;4966720;28;20277;-39
2023/07/09 09:30:29;;;;;;;6.55;2.38;;;;;;;;;;4975126;28;20052;-37
2023/07/09 09:32:56;;;;;;;3.83;2.30;;;;;;;;;;4970243;28;20072;-37
2023/07/09 09:35:33;;;;;;;5.60;2.28;;;;;;;;;;4985988;28;20677;-38
2023/07/09 09:38:03;;;;;;;8.13;2.45;;;;;;;;;;4963745;28;20019;-37
2023/07/09 09:40:33;;;;;;;5.20;2.50;;;;;;;;;;4980633;28;20040;-39
2023/07/09 09:42:59;;;;;;;4.18;2.58;;;;;;;;;;4980865;28;20670;-37
2023/07/09 09:45:27;;;;;;;5.85;2.78;;;;;;;;;;4981490;28;20084;-38
2023/07/09 09:47:53;;;;;;;3.70;2.08;;;;;;;;;;4962835;28;20061;-40
2023/07/09 09:50:21;;;;;;;5.60;2.47;;;;;;;;;;4956692;28;20031;-37
2023/07/09 09:52:47;;;;;;;9.02;3.08;;;;;;;;;;4978835;28;20057;-37
2023/07/09 09:55:20;;;;;;;5.18;2.85;;;;;;;;;;4980323;28;20141;-37
2023/07/09 09:57:50;;;;;;;21.27;9.50;;;;;;;;;;4954403;28;20042;-36
2023/07/09 10:00:16;;;;;;;4.97;2.67;;;;;;;;;;4968289;28;20412;-38
2023/07/09 10:02:42;;;;;;;5.10;2.53;;;;;;;;;;4981022;28;20592;-37
2023/07/09 10:05:12;;;;;;;5.20;2.63;;;;;;;;;;4958288;28;20018;-40
2023/07/09 10:07:42;;;;;;;7.45;3.00;;;;;;;;;;4978488;28;20416;-39
2023/07/09 10:10:13;;;;;;;6.00;2.58;;;;;;;;;;4965825;28;20026;-40
2023/07/09 10:12:43;;;;;;;5.93;2.38;;;;;;;;;;4951861;28;20023;-39
2023/07/09 10:15:34;;;;;;;4.90;2.25;;;;;;;;;;4971583;28;20030;-38
2023/07/09 10:18:14;;;;;;;4.45;2.30;;;;;;;;;;4964422;28;20523;-37
2023/07/09 10:20:46;;;;;;;6.25;2.10;;;;;;;;;;4977714;28;20112;-40
2023/07/09 10:23:41;;;;;;;5.68;2.72;;;;;;;;;;4963769;28;20018;-38
2023/07/09 10:26:22;;;;;;;4.13;2.38;;;;;;;;;;4909701;28;20123;-37
2023/07/09 10:28:47;;;;;;;4.20;2.28;;;;;;;;;;4982470;28;20034;-39
2023/07/09 10:31:16;;;;;;;4.10;2.33;;;;;;;;;;4970933;28;20033;-37
2023/07/09 10:33:41;;;;;;;4.93;2.50;;;;;;;;;;4955657;28;20270;-36
2023/07/09 10:36:30;;;;;;;5.67;2.70;;;;;;;;;;4981108;28;20477;-37
2023/07/09 10:39:01;;;;;;;6.30;2.17;;;;;;;;;;4975812;28;20266;-38
2023/07/09 10:41:28;;;;;;;6.07;2.60;;;;;;;;;;4980051;28;20547;-39
2023/07/09 10:43:53;;;;;;;5.25;2.20;;;;;;;;;;4945662;28;20030;-37
2023/07/09 10:46:21;;;;;;;7.20;3.67;;;;;;;;;;4979112;28;20018;-39
2023/07/09 10:48:48;;;;;;;5.18;2.88;;;;;;;;;;4975950;28;20034;-39
2023/07/09 10:51:19;;;;;;;6.80;3.20;;;;;;;;;;4978984;28;20837;-37
2023/07/09 10:54:07;;;;;;;5.63;3.03;;;;;;;;;;4978646;28;20018;-40
2023/07/09 10:56:35;;;;;;;5.78;2.60;;;;;;;;;;4961129;28;20049;-37
2023/07/09 10:59:01;;;;;;;4.07;2.00;;;;;;;;;;4976493;28;20504;-38
2023/07/09 11:01:36;;;;;;;6.20;2.70;;;;;;;;;;4959612;28;20153;-39
2023/07/09 11:04:09;;;;;;;4.97;2.33;;;;;;;;;;4981906;28;20026;-39
2023/07/09 11:06:41;;;;;;;5.60;2.60;;;;;;;;;;4969833;28;20018;-37
2023/07/09 11:09:14;;;;;;;4.60;2.60;;;;;;;;;;4979813;28;20045;-40
2023/07/09 11:15:13;;;;;;;17.10;6.20;;;;;;;;;;4973541;28;20557;-36
2023/07/09 11:17:42;;;;;;;18.10;9.45;;;;;;;;;;4976696;28;20026;-37
2023/07/09 11:20:16;;;;;;;6.32;3.60;;;;;;;;;;4962575;28;20053;-37
2023/07/09 11:22:42;;;;;;;5.68;2.85;;;;;;;;;;4971606;28;20037;-36
2023/07/09 11:25:12;;;;;;;5.88;2.75;;;;;;;;;;4979525;28;20022;-37
2023/07/09 11:27:50;;;;;;;7.95;2.92;;;;;;;;;;4956493;28;20084;-37
2023/07/09 11:30:20;;;;;;;5.57;2.58;;;;;;;;;;4975111;28;20510;-37
2023/07/09 11:32:46;;;;;;;8.15;3.58;;;;;;;;;;4964101;28;20489;-38
2023/07/09 11:35:23;;;;;;;7.70;4.05;;;;;;;;;;4950170;28;20017;-37
2023/07/09 11:37:48;;;;;;;9.73;3.03;;;;;;;;;;4974912;28;20122;-38
2023/07/09 11:40:14;;;;;;;6.47;2.90;;;;;;;;;;4981915;28;20117;-37
2023/07/09 11:42:56;;;;;;;5.13;2.60;;;;;;;;;;4982748;28;20481;-37
2023/07/09 11:45:27;;;;;;;7.00;2.63;;;;;;;;;;4978040;28;20038;-37
2023/07/09 11:48:19;;;;;;;4.53;2.67;;;;;;;;;;4980564;28;20058;-38
2023/07/09 11:50:46;;;;;;;4.88;2.60;;;;;;;;;;4984736;28;20014;-38
2023/07/09 11:53:35;;;;;;;6.53;2.50;;;;;;;;;;4952386;28;20069;-38
2023/07/09 11:56:00;;;;;;;3.55;2.10;;;;;;;;;;4964143;28;20486;-39
2023/07/09 11:58:25;;;;;;;7.10;3.03;;;;;;;;;;4965972;28;20146;-38
2023/07/09 12:00:54;;;;;;;6.68;2.40;;;;;;;;;;4968058;28;20022;-36
2023/07/09 12:03:40;;;;;;;5.80;2.42;;;;;;;;;;4962897;28;20041;-41
2023/07/09 12:06:16;;;;;;;4.65;2.70;;;;;;;;;;4955805;28;20129;-39
2023/07/09 12:08:42;;;;;;;5.75;2.90;;;;;;;;;;4969593;28;20038;-35
2023/07/09 12:11:22;;;;;;;6.63;2.67;;;;;;;;;;4979156;28;20022;-34
2023/07/09 12:13:48;;;;;;;6.32;3.88;;;;;;;;;;4984742;28;20481;-44
2023/07/09 12:16:30;;;;;;;7.40;2.88;;;;;;;;;;4981792;28;20038;-42
2023/07/09 12:18:55;;;;;;;4.57;2.72;;;;;;;;;;4982608;28;20030;-41
2023/07/09 12:21:22;;;;;;;6.38;2.70;;;;;;;;;;4978094;28;20030;-47
2023/07/09 12:23:48;;;;;;;7.93;4.68;;;;;;;;;;4980115;28;20023;-46
2023/07/09 12:26:14;;;;;;;9.07;5.70;;;;;;;;;;4970039;28;20546;-45
2023/07/09 12:28:40;;;;;;;15.55;6.10;;;;;;;;;;4983672;28;20485;-45
2023/07/09 12:31:11;;;;;;;9.60;4.15;;;;;;;;;;4974472;28;20105;-45
2023/07/09 12:33:36;;;;;;;6.93;2.95;;;;;;;;;;4968747;28;20029;-45
2023/07/09 12:36:04;;;;;;;14.80;5.87;;;;;;;;;;4976731;28;20204;-45
2023/07/09 12:38:32;;;;;;;6.00;2.75;;;;;;;;;;4986384;28;20022;-45
2023/07/09 12:40:59;;;;;;;7.55;2.65;;;;;;;;;;4987261;28;20560;-45
2023/07/09 12:43:26;;;;;;;4.80;2.45;;;;;;;;;;4987954;28;20025;-45
2023/07/09 12:45:52;;;;;;;4.20;2.60;;;;;;;;;;4979254;28;20034;-46
2023/07/09 12:48:19;;;;;;;5.50;2.63;;;;;;;;;;4973382;28;20030;-45
2023/07/09 12:50:49;;;;;;;3.85;2.20;;;;;;;;;;4982978;28;20040;-45
2023/07/09 13:04:01;;;;;;;3.63;2.05;;;;;;;;;;5064494;27;1391556;-44
2023/07/09 13:06:33;;;;;;;4.75;2.30;;;;;;;;;;5104636;28;20085;-44
2023/07/09 13:08:59;;;;;;;5.25;2.88;;;;;;;;;;5116525;27;20027;-44
2023/07/09 13:11:26;;;;;;;7.03;2.88;;;;;;;;;;5112580;28;20028;-44
2023/07/09 13:13:58;;;;;;;4.07;2.08;;;;;;;;;;5108395;27;20161;-44
2023/07/09 13:16:23;;;;;;;6.32;2.88;;;;;;;;;;5109026;27;20030;-44
2023/07/09 13:18:48;;;;;;;3.72;2.40;;;;;;;;;;5112014;28;20016;-44
2023/07/09 13:21:16;;;;;;;6.77;2.10;;;;;;;;;;5113430;28;20480;-44
2023/07/09 13:23:42;;;;;;;4.40;2.35;;;;;;;;;;5106933;27;20389;-45
2023/07/09 13:26:08;;;;;;;5.57;2.90;;;;;;;;;;5112842;27;20085;-44
2023/07/09 13:28:33;;;;;;;5.95;2.88;;;;;;;;;;5114128;27;20023;-44
2023/07/09 13:31:00;;;;;;;4.25;2.72;;;;;;;;;;5111291;28;20073;-44
2023/07/09 13:33:25;;;;;;;5.75;2.63;;;;;;;;;;5111321;27;20035;-44
2023/07/09 13:35:53;;;;;;;5.35;3.13;;;;;;;;;;5112837;27;20042;-44
2023/07/09 13:38:19;;;;;;;5.03;2.58;;;;;;;;;;5109796;27;20520;-44
2023/07/09 13:40:46;;;;;;;5.97;3.33;;;;;;;;;;5116039;27;20031;-44
2023/07/09 13:43:15;;;;;;;4.63;3.00;;;;;;;;;;5112561;27;20027;-44
2023/07/09 13:45:41;;;;;;;5.57;2.70;;;;;;;;;;5116605;27;20019;-45
2023/07/09 13:48:13;;;;;;;5.85;2.85;;;;;;;;;;5116738;27;20030;-44
2023/07/09 13:50:40;;;;;;;6.90;2.30;;;;;;;;;;5115224;27;20022;-44
2023/07/09 13:53:11;;;;;;;4.63;2.72;;;;;;;;;;5111921;27;20055;-45
2023/07/09 13:55:36;;;;;;;5.67;2.70;;;;;;;;;;5102488;27;20032;-45
2023/07/09 13:58:01;;;;;;;6.47;3.20;;;;;;;;;;5122547;27;20291;-45
2023/07/09 14:00:27;;;;;;;4.90;2.57;;;;;;;;;;5114974;27;20037;-45
2023/07/09 14:02:52;;;;;;;4.30;2.73;;;;;;;;;;5115633;27;20028;-45
2023/07/09 14:05:17;;;;;;;3.97;2.37;;;;;;;;;;5118324;27;20023;-45
2023/07/09 14:07:42;;;;;;;4.10;2.63;;;;;;;;;;5121704;28;20016;-45
2023/07/09 14:10:13;;;;;;;6.50;2.87;;;;;;;;;;5109799;27;20019;-45
2023/07/09 14:12:39;;;;;;;7.35;4.13;;;;;;;;;;5115382;27;20275;-45
2023/07/09 14:15:10;;;;;;;11.20;6.32;;;;;;;;;;5102407;27;20023;-45
2023/07/09 14:17:35;;;;;;;4.82;3.05;;;;;;;;;;5105193;27;20035;-45
2023/07/09 14:20:01;;;;;;;3.20;1.67;;;;;;;;;;5089954;28;20041;-45
2023/07/09 14:22:33;;;;;;;5.93;3.07;;;;;;;;;;5093479;28;20629;-45
2023/07/09 14:24:58;;;;;;;5.60;2.63;;;;;;;;;;5086541;28;21047;-45
2023/07/09 14:27:24;;;;;;;4.07;2.45;;;;;;;;;;5097301;27;20031;-45
2023/07/09 14:29:49;;;;;;;4.80;2.63;;;;;;;;;;5091328;28;20502;-46
2023/07/09 14:32:25;;;;;;;4.93;3.35;;;;;;;;;;5098749;27;20050;-45
2023/07/09 14:34:51;;;;;;;5.70;2.55;;;;;;;;;;5081802;28;20024;-46
2023/07/09 14:37:16;;;;;;;6.73;3.27;;;;;;;;;;5092894;28;20368;-46
2023/07/09 14:39:41;;;;;;;6.70;4.10;;;;;;;;;;5099599;28;20049;-46
2023/07/09 14:42:11;;;;;;;7.47;4.60;;;;;;;;;;5103790;27;20031;-46
2023/07/09 14:44:36;;;;;;;5.45;3.67;;;;;;;;;;5099607;28;20028;-45
2023/07/09 14:47:15;;;;;;;5.77;2.10;;;;;;;;;;5098014;28;20012;-46
2023/07/09 14:49:41;;;;;;;5.35;2.83;;;;;;;;;;5099741;28;20024;-46
2023/07/09 14:52:17;;;;;;;4.63;2.55;;;;;;;;;;5097668;27;20036;-46
2023/07/09 14:54:43;;;;;;;5.00;2.58;;;;;;;;;;5100266;28;20088;-45
2023/07/09 14:57:17;;;;;;;6.15;2.85;;;;;;;;;;5100089;27;20782;-45